Münster Osnabrück Airport EDDG

Flugplatz Daten

Name: Münster Osnabrück Airport

Ident: EDDG

Lat: 52,13460159

Long: 7,684830189

Platzhöhe: 160 ft

IataCode: FMO

City: Münster

Metar

2022/08/14 06:50
EDDG 140650Z AUTO VRB06KT CAVOK 24/16 Q1011 NOSIG

Taf

2022/08/14 06:27
TAF EDDG 140500Z 1406/1506 VRB03KT CAVOK
BECMG 1406/1408 09006KT
TEMPO 1500/1506 VRB03KT
Gewünschte Webcam nicht vorhanden? Dann fügen Sie eine hinzu. Sie wird dann so schnell wie möglich freigeschaltet
Url: Title: